sensor_id;sensor_type;location;lat;lon;timestamp;pressure;altitude;pressure_sealevel;temperature;humidity
59877;BME280;45749;51.140;17.184;2022-09-20T00:01:25;99966.53;;;10.03;100.00
59877;BME280;45749;51.140;17.184;2022-09-20T00:03:55;99965.83;;;10.01;100.00
59877;BME280;45749;51.140;17.184;2022-09-20T00:06:24;99965.83;;;10.01;100.00
59877;BME280;45749;51.140;17.184;2022-09-20T00:08:52;99964.16;;;10.00;100.00
59877;BME280;45749;51.140;17.184;2022-09-20T00:11:21;99965.93;;;10.00;100.00
59877;BME280;45749;51.140;17.184;2022-09-20T00:13:50;99966.06;;;9.98;100.00
59877;BME280;45749;51.140;17.184;2022-09-20T00:16:20;99965.93;;;10.00;100.00
59877;BME280;45749;51.140;17.184;2022-09-20T00:18:52;99973.38;;;10.00;100.00
59877;BME280;45749;51.140;17.184;2022-09-20T00:21:23;99975.16;;;10.00;100.00
59877;BME280;45749;51.140;17.184;2022-09-20T00:23:52;99967.48;;;9.97;100.00
59877;BME280;45749;51.140;17.184;2022-09-20T00:26:19;99972.39;;;9.96;100.00
59877;BME280;45749;51.140;17.184;2022-09-20T00:28:45;99968.92;;;9.95;100.00
59877;BME280;45749;51.140;17.184;2022-09-20T00:31:11;99972.39;;;9.96;100.00
59877;BME280;45749;51.140;17.184;2022-09-20T00:33:38;99974.20;;;9.95;100.00
59877;BME280;45749;51.140;17.184;2022-09-20T00:36:23;99969.76;;;9.96;100.00
59877;BME280;45749;51.140;17.184;2022-09-20T00:39:00;99970.59;;;9.96;100.00
59877;BME280;45749;51.140;17.184;2022-09-20T00:41:27;99972.39;;;9.96;100.00
59877;BME280;45749;51.140;17.184;2022-09-20T00:43:55;99973.01;;;9.94;100.00
59877;BME280;45749;51.140;17.184;2022-09-20T00:46:41;99972.98;;;9.88;100.00
59877;BME280;45749;51.140;17.184;2022-09-20T00:49:17;99973.47;;;9.88;100.00
59877;BME280;45749;51.140;17.184;2022-09-20T00:51:48;99971.41;;;9.85;100.00
59877;BME280;45749;51.140;17.184;2022-09-20T00:54:18;99971.06;;;9.84;100.00
59877;BME280;45749;51.140;17.184;2022-09-20T00:56:45;99969.36;;;9.83;100.00
59877;BME280;45749;51.140;17.184;2022-09-20T00:59:17;99971.16;;;9.83;100.00
59877;BME280;45749;51.140;17.184;2022-09-20T01:01:52;99971.89;;;9.85;100.00
59877;BME280;45749;51.140;17.184;2022-09-20T01:04:18;99969.36;;;9.83;100.00
59877;BME280;45749;51.140;17.184;2022-09-20T01:06:48;99967.69;;;9.82;100.00
59877;BME280;45749;51.140;17.184;2022-09-20T01:09:14;99966.37;;;9.82;100.00
59877;BME280;45749;51.140;17.184;2022-09-20T01:11:40;99963.86;;;9.81;100.00
59877;BME280;45749;51.140;17.184;2022-09-20T01:14:07;99966.59;;;9.79;100.00
59877;BME280;45749;51.140;17.184;2022-09-20T01:16:33;99967.56;;;9.78;100.00
59877;BME280;45749;51.140;17.184;2022-09-20T01:19:07;99967.66;;;9.77;100.00
59877;BME280;45749;51.140;17.184;2022-09-20T01:21:32;99971.74;;;9.75;100.00
59877;BME280;45749;51.140;17.184;2022-09-20T01:24:15;99970.78;;;9.76;100.00
59877;BME280;45749;51.140;17.184;2022-09-20T01:29:39;99965.51;;;9.76;100.00
59877;BME280;45749;51.140;17.184;2022-09-20T01:32:14;99966.47;;;9.75;100.00
59877;BME280;45749;51.140;17.184;2022-09-20T01:34:50;99965.98;;;9.76;100.00
59877;BME280;45749;51.140;17.184;2022-09-20T01:37:35;99970.08;;;9.74;100.00
59877;BME280;45749;51.140;17.184;2022-09-20T01:43:05;99974.12;;;9.73;100.00
59877;BME280;45749;51.140;17.184;2022-09-20T01:45:48;99973.28;;;9.72;100.00
59877;BME280;45749;51.140;17.184;2022-09-20T01:48:35;99976.27;;;9.73;100.00
59877;BME280;45749;51.140;17.184;2022-09-20T01:51:11;99979.52;;;9.71;100.00
59877;BME280;45749;51.140;17.184;2022-09-20T01:53:54;99974.00;;;9.69;100.00
59877;BME280;45749;51.140;17.184;2022-09-20T01:57:05;99973.41;;;9.71;100.00
59877;BME280;45749;51.140;17.184;2022-09-20T02:08:47;99982.73;;;9.69;100.00
59877;BME280;45749;51.140;17.184;2022-09-20T02:17:13;99977.44;;;9.63;100.00
59877;BME280;45749;51.140;17.184;2022-09-20T02:25:22;99981.29;;;9.65;100.00
59877;BME280;45749;51.140;17.184;2022-09-20T02:33:44;99988.45;;;9.63;100.00
59877;BME280;45749;51.140;17.184;2022-09-20T02:36:42;99990.25;;;9.62;100.00
59877;BME280;45749;51.140;17.184;2022-09-20T02:39:15;99996.84;;;9.62;100.00
59877;BME280;45749;51.140;17.184;2022-09-20T02:42:28;99994.33;;;9.61;100.00
59877;BME280;45749;51.140;17.184;2022-09-20T02:47:43;100005.09;;;9.63;100.00
59877;BME280;45749;51.140;17.184;2022-09-20T02:56:33;100010.49;;;9.62;100.00
59877;BME280;45749;51.140;17.184;2022-09-20T03:02:25;100007.50;;;9.61;100.00
59877;BME280;45749;51.140;17.184;2022-09-20T03:05:21;100016.34;;;9.60;100.00
59877;BME280;45749;51.140;17.184;2022-09-20T03:19:24;100007.47;;;9.55;100.00
59877;BME280;45749;51.140;17.184;2022-09-20T03:22:18;100010.10;;;9.55;100.00
59877;BME280;45749;51.140;17.184;2022-09-20T03:31:30;100017.17;;;9.60;100.00
59877;BME280;45749;51.140;17.184;2022-09-20T03:37:04;100018.49;;;9.60;100.00
59877;BME280;45749;51.140;17.184;2022-09-20T03:42:28;100019.94;;;9.59;100.00
59877;BME280;45749;51.140;17.184;2022-09-20T03:45:17;100021.25;;;9.59;100.00
59877;BME280;45749;51.140;17.184;2022-09-20T03:47:58;100024.37;;;9.58;100.00
59877;BME280;45749;51.140;17.184;2022-09-20T03:56:11;100013.09;;;9.56;100.00
59877;BME280;45749;51.140;17.184;2022-09-20T04:10:50;100030.42;;;9.48;100.00
59877;BME280;45749;51.140;17.184;2022-09-20T04:13:35;100026.80;;;9.43;100.00
59877;BME280;45749;51.140;17.184;2022-09-20T04:21:51;100026.53;;;9.40;100.00
59877;BME280;45749;51.140;17.184;2022-09-20T04:24:47;100027.84;;;9.40;100.00
59877;BME280;45749;51.140;17.184;2022-09-20T04:27:31;100027.97;;;9.39;100.00
59877;BME280;45749;51.140;17.184;2022-09-20T04:30:23;100035.39;;;9.39;100.00
59877;BME280;45749;51.140;17.184;2022-09-20T04:33:10;100036.35;;;9.38;100.00
59877;BME280;45749;51.140;17.184;2022-09-20T04:38:59;100035.39;;;9.39;100.00
59877;BME280;45749;51.140;17.184;2022-09-20T04:56:48;100045.58;;;9.44;100.00
59877;BME280;45749;51.140;17.184;2022-09-20T04:59:40;100050.76;;;9.46;100.00
59877;BME280;45749;51.140;17.184;2022-09-20T05:05:03;100056.52;;;9.51;100.00
59877;BME280;45749;51.140;17.184;2022-09-20T05:11:01;100060.02;;;9.51;100.00
59877;BME280;45749;51.140;17.184;2022-09-20T05:13:47;100065.90;;;9.55;100.00
59877;BME280;45749;51.140;17.184;2022-09-20T05:16:20;100072.58;;;9.53;100.00
59877;BME280;45749;51.140;17.184;2022-09-20T05:21:58;100081.53;;;9.51;100.00
59877;BME280;45749;51.140;17.184;2022-09-20T05:27:45;100091.00;;;9.48;100.00
59877;BME280;45749;51.140;17.184;2022-09-20T05:36:11;100102.11;;;9.46;100.00
59877;BME280;45749;51.140;17.184;2022-09-20T05:42:13;100103.43;;;9.46;100.00
59877;BME280;45749;51.140;17.184;2022-09-20T05:45:21;100106.42;;;9.47;100.00
59877;BME280;45749;51.140;17.184;2022-09-20T05:47:55;100104.63;;;9.47;100.00
59877;BME280;45749;51.140;17.184;2022-09-20T05:50:51;100108.84;;;9.50;100.00
59877;BME280;45749;51.140;17.184;2022-09-20T06:16:00;100115.73;;;9.58;100.00
59877;BME280;45749;51.140;17.184;2022-09-20T06:27:01;100122.94;;;9.61;100.00
59877;BME280;45749;51.140;17.184;2022-09-20T06:29:35;100116.23;;;9.63;100.00
59877;BME280;45749;51.140;17.184;2022-09-20T06:32:03;100123.43;;;9.67;100.00
59877;BME280;45749;51.140;17.184;2022-09-20T06:34:30;100119.73;;;9.69;100.00
59877;BME280;45749;51.140;17.184;2022-09-20T06:43:01;100131.52;;;9.76;100.00
59877;BME280;45749;51.140;17.184;2022-09-20T06:45:28;100128.66;;;9.79;100.00
59877;BME280;45749;51.140;17.184;2022-09-20T06:47:56;100133.23;;;9.83;100.00
59877;BME280;45749;51.140;17.184;2022-09-20T06:50:21;100130.02;;;9.85;100.00
59877;BME280;45749;51.140;17.184;2022-09-20T06:52:48;100135.64;;;9.86;100.00
59877;BME280;45749;51.140;17.184;2022-09-20T06:55:24;100139.86;;;9.89;100.00
59877;BME280;45749;51.140;17.184;2022-09-20T06:57:53;100138.67;;;9.93;100.00
59877;BME280;45749;51.140;17.184;2022-09-20T07:00:20;100142.89;;;9.95;100.00
59877;BME280;45749;51.140;17.184;2022-09-20T07:02:45;100144.56;;;9.96;100.00
59877;BME280;45749;51.140;17.184;2022-09-20T07:05:17;100140.52;;;9.98;100.00
59877;BME280;45749;51.140;17.184;2022-09-20T07:07:45;100145.56;;;10.01;100.00
59877;BME280;45749;51.140;17.184;2022-09-20T07:10:12;100149.74;;;10.03;100.00
59877;BME280;45749;51.140;17.184;2022-09-20T07:12:40;100152.64;;;10.06;100.00
59877;BME280;45749;51.140;17.184;2022-09-20T07:15:07;100155.80;;;10.11;100.00
59877;BME280;45749;51.140;17.184;2022-09-20T07:17:33;100167.05;;;10.13;100.00
59877;BME280;45749;51.140;17.184;2022-09-20T07:19:59;100167.31;;;10.16;100.00
59877;BME280;45749;51.140;17.184;2022-09-20T07:22:26;100167.57;;;10.18;100.00
59877;BME280;45749;51.140;17.184;2022-09-20T07:24:52;100165.41;;;10.18;100.00
59877;BME280;45749;51.140;17.184;2022-09-20T07:27:18;100165.67;;;10.20;100.00
59877;BME280;45749;51.140;17.184;2022-09-20T07:29:45;100169.76;;;10.24;100.00
59877;BME280;45749;51.140;17.184;2022-09-20T07:32:12;100172.20;;;10.27;100.00
59877;BME280;45749;51.140;17.184;2022-09-20T07:34:39;100174.75;;;10.35;100.00
59877;BME280;45749;51.140;17.184;2022-09-20T07:37:06;100177.16;;;10.38;100.00
59877;BME280;45749;51.140;17.184;2022-09-20T07:39:31;100181.83;;;10.40;100.00
59877;BME280;45749;51.140;17.184;2022-09-20T07:41:57;100166.35;;;10.35;100.00
59877;BME280;45749;51.140;17.184;2022-09-20T07:44:23;100179.22;;;10.45;100.00
59877;BME280;45749;51.140;17.184;2022-09-20T07:46:51;100182.11;;;10.48;100.00
59877;BME280;45749;51.140;17.184;2022-09-20T07:49:19;100185.84;;;10.51;100.00
59877;BME280;45749;51.140;17.184;2022-09-20T07:51:47;100183.81;;;10.54;100.00
59877;BME280;45749;51.140;17.184;2022-09-20T07:54:14;100190.05;;;10.59;100.00
59877;BME280;45749;51.140;17.184;2022-09-20T07:56:40;100186.84;;;10.61;100.00
59877;BME280;45749;51.140;17.184;2022-09-20T07:59:07;100187.58;;;10.63;100.00
59877;BME280;45749;51.140;17.184;2022-09-20T08:01:35;100191.17;;;10.68;100.00
59877;BME280;45749;51.140;17.184;2022-09-20T08:04:04;100188.66;;;10.72;100.00
59877;BME280;45749;51.140;17.184;2022-09-20T08:06:31;100190.01;;;10.77;100.00
59877;BME280;45749;51.140;17.184;2022-09-20T08:09:04;100192.54;;;10.85;100.00
59877;BME280;45749;51.140;17.184;2022-09-20T08:11:30;100192.54;;;10.85;100.00
59877;BME280;45749;51.140;17.184;2022-09-20T08:13:58;100196.63;;;10.89;100.00
59877;BME280;45749;51.140;17.184;2022-09-20T08:16:26;100195.55;;;10.91;100.00
59877;BME280;45749;51.140;17.184;2022-09-20T08:18:55;100197.61;;;10.93;100.00
59877;BME280;45749;51.140;17.184;2022-09-20T08:21:25;100200.86;;;10.97;100.00
59877;BME280;45749;51.140;17.184;2022-09-20T08:23:52;100197.02;;;11.01;100.00
59877;BME280;45749;51.140;17.184;2022-09-20T08:26:20;100194.27;;;11.08;100.00
59877;BME280;45749;51.140;17.184;2022-09-20T08:28:51;100202.20;;;11.14;100.00
59877;BME280;45749;51.140;17.184;2022-09-20T08:31:23;100202.22;;;11.19;100.00
59877;BME280;45749;51.140;17.184;2022-09-20T08:33:51;100196.08;;;11.24;100.00
59877;BME280;45749;51.140;17.184;2022-09-20T08:36:21;100203.05;;;11.31;100.00
59877;BME280;45749;51.140;17.184;2022-09-20T08:38:49;100201.88;;;11.35;100.00
59877;BME280;45749;51.140;17.184;2022-09-20T08:41:22;100199.84;;;11.39;100.00
59877;BME280;45749;51.140;17.184;2022-09-20T08:46:42;100211.23;;;11.50;100.00
59877;BME280;45749;51.140;17.184;2022-09-20T08:49:25;100206.92;;;11.55;100.00
59877;BME280;45749;51.140;17.184;2022-09-20T08:51:53;100210.65;;;11.58;100.00
59877;BME280;45749;51.140;17.184;2022-09-20T08:54:21;100204.39;;;11.59;100.00
59877;BME280;45749;51.140;17.184;2022-09-20T08:56:48;100215.42;;;11.64;100.00
59877;BME280;45749;51.140;17.184;2022-09-20T08:59:17;100205.45;;;11.68;99.95
59877;BME280;45749;51.140;17.184;2022-09-20T09:01:47;100208.47;;;11.69;99.54
59877;BME280;45749;51.140;17.184;2022-09-20T09:04:23;100211.95;;;11.69;99.35
59877;BME280;45749;51.140;17.184;2022-09-20T09:06:50;100211.95;;;11.75;99.68
59877;BME280;45749;51.140;17.184;2022-09-20T09:09:22;100209.91;;;11.79;99.40
59877;BME280;45749;51.140;17.184;2022-09-20T09:11:51;100216.63;;;11.83;99.33
59877;BME280;45749;51.140;17.184;2022-09-20T09:14:25;100218.22;;;11.85;98.85
59877;BME280;45749;51.140;17.184;2022-09-20T09:17:14;100223.02;;;11.86;98.27
59877;BME280;45749;51.140;17.184;2022-09-20T09:22:31;100217.50;;;11.89;98.58
59877;BME280;45749;51.140;17.184;2022-09-20T09:25:20;100220.73;;;11.92;98.20
59877;BME280;45749;51.140;17.184;2022-09-20T09:30:42;100220.11;;;12.00;98.49
59877;BME280;45749;51.140;17.184;2022-09-20T09:33:30;100214.47;;;12.05;98.56
59877;BME280;45749;51.140;17.184;2022-09-20T09:36:07;100221.88;;;12.11;98.58
59877;BME280;45749;51.140;17.184;2022-09-20T09:38:38;100223.20;;;12.16;98.20
59877;BME280;45749;51.140;17.184;2022-09-20T09:44:45;100219.92;;;12.30;98.62
59877;BME280;45749;51.140;17.184;2022-09-20T09:46:50;100224.47;;;12.39;98.90
59877;BME280;45749;51.140;17.184;2022-09-20T09:49:21;100224.06;;;12.49;98.95
59877;BME280;45749;51.140;17.184;2022-09-20T09:54:32;100221.17;;;12.52;97.17
59877;BME280;45749;51.140;17.184;2022-09-20T10:14:56;100218.08;;;12.74;96.70
59877;BME280;45749;51.140;17.184;2022-09-20T10:17:37;100228.53;;;12.75;96.48
59877;BME280;45749;51.140;17.184;2022-09-20T10:25:59;100234.56;;;12.72;95.45
59877;BME280;45749;51.140;17.184;2022-09-20T10:31:47;100232.08;;;12.64;95.66
59877;BME280;45749;51.140;17.184;2022-09-20T10:46:51;100240.11;;;12.95;95.08
59877;BME280;45749;51.140;17.184;2022-09-20T10:49:42;100238.53;;;12.98;94.82
59877;BME280;45749;51.140;17.184;2022-09-20T11:01:59;100243.72;;;13.15;93.82
59877;BME280;45749;51.140;17.184;2022-09-20T11:07:51;100248.44;;;13.11;94.37
59877;BME280;45749;51.140;17.184;2022-09-20T11:10:36;100245.39;;;13.16;93.73
59877;BME280;45749;51.140;17.184;2022-09-20T11:21:38;100248.91;;;13.68;93.85
59877;BME280;45749;51.140;17.184;2022-09-20T11:26:50;100245.42;;;13.68;92.51
59877;BME280;45749;51.140;17.184;2022-09-20T11:33:04;100241.55;;;13.56;91.67
59877;BME280;45749;51.140;17.184;2022-09-20T11:35:50;100238.33;;;13.53;91.22
59877;BME280;45749;51.140;17.184;2022-09-20T11:38:35;100232.31;;;13.51;91.85
59877;BME280;45749;51.140;17.184;2022-09-20T11:41:20;100235.80;;;13.51;92.21
59877;BME280;45749;51.140;17.184;2022-09-20T11:43:56;100232.70;;;13.61;92.96
59877;BME280;45749;51.140;17.184;2022-09-20T11:46:45;100233.37;;;13.69;91.73
59877;BME280;45749;51.140;17.184;2022-09-20T11:49:43;100242.24;;;13.74;91.92
59877;BME280;45749;51.140;17.184;2022-09-20T11:57:42;100249.77;;;13.53;90.70
59877;BME280;45749;51.140;17.184;2022-09-20T12:00:08;100265.85;;;13.46;91.53
59877;BME280;45749;51.140;17.184;2022-09-20T12:02:41;100267.87;;;13.33;91.32
59877;BME280;45749;51.140;17.184;2022-09-20T12:08:28;100273.21;;;13.16;91.53
59877;BME280;45749;51.140;17.184;2022-09-20T12:10:59;100272.10;;;13.03;91.80
59877;BME280;45749;51.140;17.184;2022-09-20T12:13:30;100272.28;;;12.90;92.07
59877;BME280;45749;51.140;17.184;2022-09-20T12:16:00;100268.58;;;12.82;92.99
59877;BME280;45749;51.140;17.184;2022-09-20T12:21:05;100268.14;;;12.77;94.15
59877;BME280;45749;51.140;17.184;2022-09-20T12:28:57;100269.79;;;12.83;94.96
59877;BME280;45749;51.140;17.184;2022-09-20T12:39:26;100258.39;;;12.72;95.11
59877;BME280;45749;51.140;17.184;2022-09-20T12:47:34;100267.06;;;12.74;96.49
59877;BME280;45749;51.140;17.184;2022-09-20T12:50:14;100271.73;;;12.76;95.70
59877;BME280;45749;51.140;17.184;2022-09-20T12:53:01;100282.70;;;12.77;95.51
59877;BME280;45749;51.140;17.184;2022-09-20T12:58:36;100286.20;;;12.72;95.71
59877;BME280;45749;51.140;17.184;2022-09-20T13:03:44;100281.40;;;12.65;95.87
59877;BME280;45749;51.140;17.184;2022-09-20T13:09:07;100278.50;;;12.68;96.73
59877;BME280;45749;51.140;17.184;2022-09-20T13:11:43;100276.78;;;12.73;97.33
59877;BME280;45749;51.140;17.184;2022-09-20T13:17:05;100278.33;;;12.81;97.39
59877;BME280;45749;51.140;17.184;2022-09-20T13:19:42;100282.16;;;12.88;97.19
59877;BME280;45749;51.140;17.184;2022-09-20T13:24:55;100277.42;;;12.98;96.82
59877;BME280;45749;51.140;17.184;2022-09-20T13:27:30;100276.53;;;13.03;96.89
59877;BME280;45749;51.140;17.184;2022-09-20T13:30:21;100269.55;;;13.07;96.99
59877;BME280;45749;51.140;17.184;2022-09-20T13:32:49;100265.66;;;13.11;97.28
59877;BME280;45749;51.140;17.184;2022-09-20T13:35:19;100268.89;;;13.15;97.09
59877;BME280;45749;51.140;17.184;2022-09-20T13:40:37;100268.63;;;13.18;97.26
59877;BME280;45749;51.140;17.184;2022-09-20T13:43:11;100271.64;;;13.25;97.78
59877;BME280;45749;51.140;17.184;2022-09-20T13:45:55;100267.87;;;13.33;96.71
59877;BME280;45749;51.140;17.184;2022-09-20T13:48:24;100264.06;;;13.41;96.14
59877;BME280;45749;51.140;17.184;2022-09-20T13:50:55;100266.72;;;13.41;95.72
59877;BME280;45749;51.140;17.184;2022-09-20T13:53:24;100275.19;;;13.35;94.37
59877;BME280;45749;51.140;17.184;2022-09-20T13:55:52;100271.98;;;13.26;93.77
59877;BME280;45749;51.140;17.184;2022-09-20T13:58:28;100266.56;;;13.22;93.77
59877;BME280;45749;51.140;17.184;2022-09-20T14:00:58;100270.45;;;13.18;94.04
59877;BME280;45749;51.140;17.184;2022-09-20T14:03:27;100262.41;;;13.13;93.76
59877;BME280;45749;51.140;17.184;2022-09-20T14:06:06;100267.82;;;13.12;94.25
59877;BME280;45749;51.140;17.184;2022-09-20T14:08:48;100262.03;;;13.12;94.45
59877;BME280;45749;51.140;17.184;2022-09-20T14:11:29;100260.92;;;13.21;94.94
59877;BME280;45749;51.140;17.184;2022-09-20T14:14:00;100265.24;;;13.27;94.00
59877;BME280;45749;51.140;17.184;2022-09-20T14:16:32;100264.50;;;13.31;93.40
59877;BME280;45749;51.140;17.184;2022-09-20T14:18:58;100264.09;;;13.35;93.85
59877;BME280;45749;51.140;17.184;2022-09-20T14:21:27;100259.86;;;13.38;93.80
59877;BME280;45749;51.140;17.184;2022-09-20T14:24:04;100265.05;;;13.40;92.80
59877;BME280;45749;51.140;17.184;2022-09-20T14:26:58;100267.55;;;13.42;92.95
59877;BME280;45749;51.140;17.184;2022-09-20T14:34:59;100272.59;;;13.29;92.12
59877;BME280;45749;51.140;17.184;2022-09-20T14:37:58;100277.66;;;13.21;91.92
59877;BME280;45749;51.140;17.184;2022-09-20T14:40:30;100278.66;;;13.14;91.81
59877;BME280;45749;51.140;17.184;2022-09-20T14:43:01;100275.28;;;13.12;91.96
59877;BME280;45749;51.140;17.184;2022-09-20T14:45:37;100275.28;;;13.12;92.36
59877;BME280;45749;51.140;17.184;2022-09-20T14:53:38;100271.22;;;13.08;91.80
59877;BME280;45749;51.140;17.184;2022-09-20T14:56:08;100273.61;;;13.11;92.00
59877;BME280;45749;51.140;17.184;2022-09-20T15:01:54;100276.09;;;13.19;90.93
59877;BME280;45749;51.140;17.184;2022-09-20T15:04:28;100277.66;;;13.21;90.46
59877;BME280;45749;51.140;17.184;2022-09-20T15:06:59;100272.70;;;13.22;90.41
59877;BME280;45749;51.140;17.184;2022-09-20T15:09:27;100279.59;;;13.25;90.71
59877;BME280;45749;51.140;17.184;2022-09-20T15:12:01;100275.01;;;13.27;90.20
59877;BME280;45749;51.140;17.184;2022-09-20T15:14:30;100279.67;;;13.29;90.27
59877;BME280;45749;51.140;17.184;2022-09-20T15:16:57;100273.91;;;13.29;90.02
59877;BME280;45749;51.140;17.184;2022-09-20T15:19:25;100284.86;;;13.30;89.93
59877;BME280;45749;51.140;17.184;2022-09-20T15:21:52;100282.56;;;13.31;90.08
59877;BME280;45749;51.140;17.184;2022-09-20T15:24:18;100285.55;;;13.32;89.89
59877;BME280;45749;51.140;17.184;2022-09-20T15:26:44;100285.55;;;13.32;89.61
59877;BME280;45749;51.140;17.184;2022-09-20T15:29:15;100277.60;;;13.32;89.15
59877;BME280;45749;51.140;17.184;2022-09-20T15:31:46;100285.78;;;13.35;89.07
59877;BME280;45749;51.140;17.184;2022-09-20T15:34:13;100287.59;;;13.34;89.36
59877;BME280;45749;51.140;17.184;2022-09-20T15:36:40;100288.58;;;13.33;88.79
59877;BME280;45749;51.140;17.184;2022-09-20T15:39:06;100288.49;;;13.29;89.01
59877;BME280;45749;51.140;17.184;2022-09-20T15:41:33;100289.93;;;13.28;88.76
59877;BME280;45749;51.140;17.184;2022-09-20T15:44:01;100297.16;;;13.26;89.07
59877;BME280;45749;51.140;17.184;2022-09-20T15:46:28;100294.16;;;13.25;89.08
59877;BME280;45749;51.140;17.184;2022-09-20T15:48:54;100299.80;;;13.26;89.23
59877;BME280;45749;51.140;17.184;2022-09-20T15:51:21;100295.83;;;13.26;89.53
59877;BME280;45749;51.140;17.184;2022-09-20T15:53:56;100297.76;;;13.24;89.43
59877;BME280;45749;51.140;17.184;2022-09-20T15:56:25;100285.83;;;13.24;89.11
59877;BME280;45749;51.140;17.184;2022-09-20T15:58:54;100292.22;;;13.21;88.69
59877;BME280;45749;51.140;17.184;2022-09-20T16:01:30;100295.62;;;13.18;88.86
59877;BME280;45749;51.140;17.184;2022-09-20T16:03:56;100299.84;;;13.14;88.65
59877;BME280;45749;51.140;17.184;2022-09-20T16:06:22;100299.38;;;13.09;88.62
59877;BME280;45749;51.140;17.184;2022-09-20T16:08:49;100302.31;;;13.06;88.64
59877;BME280;45749;51.140;17.184;2022-09-20T16:11:18;100301.44;;;13.06;89.18
59877;BME280;45749;51.140;17.184;2022-09-20T16:13:50;100298.10;;;13.04;88.94
59877;BME280;45749;51.140;17.184;2022-09-20T16:16:20;100302.33;;;13.01;88.98
59877;BME280;45749;51.140;17.184;2022-09-20T16:18:47;100303.56;;;12.97;89.11
59877;BME280;45749;51.140;17.184;2022-09-20T16:21:31;100309.70;;;12.91;88.47
59877;BME280;45749;51.140;17.184;2022-09-20T16:23:58;100315.64;;;12.84;88.51
59877;BME280;45749;51.140;17.184;2022-09-20T16:26:25;100320.36;;;12.80;88.74
59877;BME280;45749;51.140;17.184;2022-09-20T16:28:52;100319.15;;;12.73;88.41
59877;BME280;45749;51.140;17.184;2022-09-20T16:31:37;100326.30;;;12.67;89.00
59877;BME280;45749;51.140;17.184;2022-09-20T16:34:28;100332.67;;;12.64;89.38
59877;BME280;45749;51.140;17.184;2022-09-20T16:37:01;100339.53;;;12.61;89.02
59877;BME280;45749;51.140;17.184;2022-09-20T16:39:31;100352.77;;;12.56;89.05
59877;BME280;45749;51.140;17.184;2022-09-20T16:42:03;100355.42;;;12.50;89.30
59877;BME280;45749;51.140;17.184;2022-09-20T16:44:35;100358.20;;;12.49;89.49
59877;BME280;45749;51.140;17.184;2022-09-20T16:47:07;100365.06;;;12.46;89.17
59877;BME280;45749;51.140;17.184;2022-09-20T16:49:36;100362.41;;;12.40;89.13
59877;BME280;45749;51.140;17.184;2022-09-20T16:52:07;100369.16;;;12.33;89.21
59877;BME280;45749;51.140;17.184;2022-09-20T16:54:34;100374.34;;;12.29;89.28
59877;BME280;45749;51.140;17.184;2022-09-20T16:57:00;100375.17;;;12.24;89.19
59877;BME280;45749;51.140;17.184;2022-09-20T16:59:26;100386.97;;;12.19;88.87
59877;BME280;45749;51.140;17.184;2022-09-20T17:01:53;100385.63;;;12.14;88.62
59877;BME280;45749;51.140;17.184;2022-09-20T17:04:19;100389.48;;;12.10;88.83
59877;BME280;45749;51.140;17.184;2022-09-20T17:06:46;100398.28;;;12.05;88.83
59877;BME280;45749;51.140;17.184;2022-09-20T17:09:14;100393.95;;;11.98;88.97
59877;BME280;45749;51.140;17.184;2022-09-20T17:11:43;100405.70;;;11.94;88.81
59877;BME280;45749;51.140;17.184;2022-09-20T17:14:11;100404.25;;;11.90;89.11
59877;BME280;45749;51.140;17.184;2022-09-20T17:16:40;100413.74;;;11.87;89.49
59877;BME280;45749;51.140;17.184;2022-09-20T17:19:08;100413.82;;;11.80;89.08
59877;BME280;45749;51.140;17.184;2022-09-20T17:21:40;100416.58;;;11.72;89.35
59877;BME280;45749;51.140;17.184;2022-09-20T17:24:09;100420.87;;;11.68;89.45
59877;BME280;45749;51.140;17.184;2022-09-20T17:26:40;100419.91;;;11.63;89.60
59877;BME280;45749;51.140;17.184;2022-09-20T17:29:11;100421.36;;;11.62;89.68
59877;BME280;45749;51.140;17.184;2022-09-20T17:31:42;100418.81;;;11.60;89.77
59877;BME280;45749;51.140;17.184;2022-09-20T17:34:13;100418.34;;;11.55;89.57
59877;BME280;45749;51.140;17.184;2022-09-20T17:36:43;100422.98;;;11.51;89.73
59877;BME280;45749;51.140;17.184;2022-09-20T17:39:12;100428.52;;;11.48;89.92
59877;BME280;45749;51.140;17.184;2022-09-20T17:41:46;100427.88;;;11.45;89.71
59877;BME280;45749;51.140;17.184;2022-09-20T17:44:09;100435.20;;;11.41;89.86
59877;BME280;45749;51.140;17.184;2022-09-20T17:46:47;100438.67;;;11.36;89.88
59877;BME280;45749;51.140;17.184;2022-09-20T17:49:15;100440.58;;;11.34;89.76
59877;BME280;45749;51.140;17.184;2022-09-20T17:51:44;100439.96;;;11.31;89.97
59877;BME280;45749;51.140;17.184;2022-09-20T17:54:12;100444.41;;;11.30;90.14
59877;BME280;45749;51.140;17.184;2022-09-20T17:56:43;100444.37;;;11.24;90.01
59877;BME280;45749;51.140;17.184;2022-09-20T17:59:17;100451.20;;;11.21;90.26
59877;BME280;45749;51.140;17.184;2022-09-20T18:01:46;100457.31;;;11.22;90.54
59877;BME280;45749;51.140;17.184;2022-09-20T18:04:16;100464.67;;;11.24;91.09
59877;BME280;45749;51.140;17.184;2022-09-20T18:06:47;100456.00;;;11.22;90.72
59877;BME280;45749;51.140;17.184;2022-09-20T18:09:17;100462.38;;;11.19;90.56
59877;BME280;45749;51.140;17.184;2022-09-20T18:11:47;100464.40;;;11.16;90.59
59877;BME280;45749;51.140;17.184;2022-09-20T18:14:17;100467.26;;;11.13;91.00
59877;BME280;45749;51.140;17.184;2022-09-20T18:16:45;100468.94;;;11.14;91.26
59877;BME280;45749;51.140;17.184;2022-09-20T18:19:11;100471.94;;;11.15;91.19
59877;BME280;45749;51.140;17.184;2022-09-20T18:21:39;100477.22;;;11.15;91.60